Home > Products > Valid Products > TAF

000
FTUS43 KICT 010105 AAA
TAFRSL
TAF AMD
KRSL 010105Z 0101/0124 31013KT P6SM OVC045
     FM010300 30007KT P6SM BKN040
     FM010900 28007KT P6SM BKN015 OVC040
     FM011200 33013KT P6SM OVC013
     FM011500 35017KT P6SM OVC015=



000
FTUS43 KICT 302340
TAFICT
TAF
KICT 302340Z 0100/0124 28017KT P6SM BKN045
     FM010130 30009KT P6SM BKN045
     FM010300 30003KT P6SM BKN045
     FM011000 31007KT P6SM SCT040=



000
FTUS43 KICT 302340
TAFHUT
TAF
KHUT 302340Z 0100/0124 29009KT P6SM OVC045
     FM010600 33009KT P6SM OVC035
     FM011000 31009KT P6SM SCT035=



000
FTUS43 KICT 302340
TAFSLN
TAF
KSLN 302340Z 0100/0124 28013KT P6SM OVC050
     FM010130 29007KT P6SM SCT050
     FM011000 28007KT P6SM OVC035
     FM011300 32013KT P6SM OVC015
     FM011700 35017G22KT P6SM OVC025=



000
FTUS43 KICT 302340
TAFCNU
TAF
KCNU 302340Z 0100/0124 28009KT P6SM SCT045
     FM011000 32004KT P6SM SKC=



000
FTUS43 KICT 302340
TAFRSL
TAF
KRSL 302340Z 0100/0124 28017KT P6SM OVC035
     FM010130 31009KT P6SM OVC025
     FM011000 29007KT P6SM OVC013
     FM011200 33013KT P6SM OVC008
     FM011500 35017KT P6SM OVC015=



000
FTUS43 KICT 301943 AAA
TAFRSL
TAF AMD
KRSL 301943Z 3020/0118 29015G22KT P6SM SCT025 BKN035
     FM010100 30010KT P6SM BKN035
     FM010600 32013KT P6SM OVC015
     FM011600 33015G23KT P6SM BKN025=



000
FTUS43 KICT 301942 AAA
TAFSLN
TAF AMD
KSLN 301942Z 3020/0118 28015G21KT P6SM SCT035 BKN050
     FM010100 30009KT P6SM BKN050
     FM010600 30011KT P6SM OVC015
     FM011600 32015G23KT P6SM BKN025=



000
FTUS43 KICT 301941 AAA
TAFHUT
TAF AMD
KHUT 301941Z 3020/0118 27015G23KT P6SM BKN035
     FM010100 30009KT P6SM BKN035
     FM011100 30011KT P6SM BKN015
     FM011600 32015G23KT P6SM SCT025=



000
FTUS43 KICT 301941 AAA
TAFICT
TAF AMD
KICT 301941Z 3020/0118 27015G23KT P6SM SCT035
     FM010100 30009KT P6SM SCT035
     FM011200 31009KT P6SM SCT015
     FM011600 32015G23KT P6SM SCT025=



000
FTUS43 KICT 301720
TAFCNU
TAF
KCNU 301720Z 3018/0118 24014KT P6SM SCT020 BKN035
     FM302000 24013KT P6SM SCT035
     FM010000 29008KT P6SM SCT200
     FM011600 30011KT P6SM SCT025=



000
FTUS43 KICT 301720
TAFHUT
TAF
KHUT 301720Z 3018/0118 28015G23KT P6SM BKN020 OVC030
     FM302000 28015G23KT P6SM SCT025 BKN035
     FM010100 30009KT P6SM BKN035
     FM011100 30011KT P6SM BKN015
     FM011600 32015G23KT P6SM SCT025=



000
FTUS43 KICT 301720
TAFRSL
TAF
KRSL 301720Z 3018/0118 29015G22KT P6SM BKN025 BKN035
      TEMPO 3020/3024 SCT020 BKN035
     FM010100 30010KT P6SM BKN030
     FM010600 32013KT P6SM OVC015
     FM011600 33015G23KT P6SM BKN025=



000
FTUS43 KICT 301720
TAFICT
TAF
KICT 301720Z 3018/0118 28015G23KT P6SM BKN020 OVC030
     FM302000 28015G23KT P6SM SCT025 BKN035
     FM010100 30009KT P6SM SCT035
     FM011200 31009KT P6SM SCT015
     FM011600 32015G23KT P6SM SCT025=



000
FTUS43 KICT 301720
TAFSLN
TAF
KSLN 301720Z 3018/0118 28015G23KT P6SM SCT025 BKN035
      TEMPO 3018/3022 BKN025
     FM010100 30009KT P6SM BKN035
     FM010600 30011KT P6SM OVC015
     FM011600 32015G23KT P6SM BKN025=



000
FTUS43 KICT 301720
TAFHUT
TAF
KHUT 301720Z 3018/0118 28015G23KT P6SM BKN020 OVC030
     FM302000 28015G23KT P6SM SCT025 BKN035
     FM010100 30009KT P6SM BKN035
     FM011100 30011KT P6SM BKN015
     FM011600 32015G23KT P6SM SCT025=



000
FTUS43 KICT 301720
TAFCNU
TAF
KCNU 301720Z 3018/0118 24014KT P6SM SCT020 BKN035
     FM302000 24013KT P6SM SCT035
     FM010000 29008KT P6SM SCT200
     FM011600 30011KT P6SM SCT025=



000
FTUS43 KICT 301720
TAFSLN
TAF
KSLN 301720Z 3018/0118 28015G23KT P6SM SCT025 BKN035
      TEMPO 3018/3022 BKN025
     FM010100 30009KT P6SM BKN035
     FM010600 30011KT P6SM OVC015
     FM011600 32015G23KT P6SM BKN025=



000
FTUS43 KICT 301507 AAC
TAFRSL
TAF AMD
KRSL 301507Z 3015/0112 28013KT P6SM SCT008 OVC014
      TEMPO 3015/3017 BKN008
     FM301900 29014KT P6SM SCT020 BKN030
     FM010100 32011KT P6SM SCT020 BKN040
     FM010600 30012KT P6SM OVC012=



000
FTUS43 KICT 301507 AAC
TAFRSL
TAF AMD
KRSL 301507Z 3015/0112 28013KT P6SM SCT008 OVC014
      TEMPO 3015/3017 BKN008
     FM301900 29014KT P6SM SCT020 BKN030
     FM010100 32011KT P6SM SCT020 BKN040
     FM010600 30012KT P6SM OVC012=



000
FTUS43 KICT 301334 AAC
TAFHUT
TAF AMD
KHUT 301334Z 3014/0112 27012KT P6SM OVC006
      TEMPO 3015/3016 SCT006 OVC010
     FM301600 28014KT P6SM SCT010 BKN020
     FM301700 27015G23KT P6SM SCT020 BKN035
     FM010100 30010KT P6SM SCT020 BKN050
     FM011000 31013KT P6SM BKN020=



000
FTUS43 KICT 301332 AAD
TAFSLN
TAF AMD
KSLN 301332Z 3014/0112 29010KT P6SM OVC007
      TEMPO 3014/3016 SCT007 OVC012
     FM301600 27015G22KT P6SM OVC015
     FM301900 28015G23KT P6SM SCT020 BKN030
     FM010100 30011KT P6SM SCT020 BKN035
     FM010600 30012KT P6SM BKN020=



000
FTUS43 KICT 301327 AAD
TAFCNU
TAF AMD
KCNU 301327Z 3013/0112 25011KT P6SM BKN008 OVC015
      TEMPO 3013/3015 SCT008 OVC015
     FM301500 25011KT P6SM OVC015
     FM301700 24014KT P6SM SCT020 BKN035
     FM010000 27008KT P6SM SCT250=



000
FTUS43 KICT 301136 AAC
TAFCNU
TAF AMD
KCNU 301136Z 3012/0112 21010KT P6SM OVC008
     FM301500 26012KT P6SM SCT010 BKN020
     FM301700 24014KT P6SM SCT020 BKN035
     FM010000 27008KT P6SM SCT250=



000
FTUS43 KICT 301136 AAB
TAFRSL
TAF AMD
KRSL 301136Z 3012/0112 30011KT P6SM OVC006
      TEMPO 3012/3016 4SM BR OVC003
     FM301600 30014KT P6SM SCT007 BKN012
     FM301900 29014KT P6SM SCT020 BKN030
     FM010100 32011KT P6SM SCT020 BKN040
     FM010600 30012KT P6SM OVC012=



000
FTUS43 KICT 301136 AAB
TAFICT
TAF AMD
KICT 301136Z 3012/0112 28012KT P6SM OVC007
     FM301500 27014KT P6SM SCT010 BKN020
     FM301700 27014G21KT P6SM SCT020 BKN040
     FM010100 29009KT P6SM SCT150=



000
FTUS43 KICT 301136 AAB
TAFHUT
TAF AMD
KHUT 301136Z 3012/0112 29011KT P6SM OVC007
      TEMPO 3012/3015 OVC004
     FM301500 28014KT P6SM SCT010 BKN020
     FM301700 27015G23KT P6SM SCT020 BKN035
     FM010100 30010KT P6SM SCT020 BKN050
     FM011000 31013KT P6SM BKN020=



000
FTUS43 KICT 301136 AAC
TAFSLN
TAF AMD
KSLN 301136Z 3012/0112 31010KT P6SM OVC007
      TEMPO 3012/3016 5SM BR OVC004
     FM301600 27015G22KT P6SM SCT008 BKN012
     FM301900 28015G23KT P6SM SCT012 BKN030
     FM010100 30011KT P6SM SCT020 BKN035
     FM010600 30012KT P6SM BKN020=



000
FTUS43 KICT 301136 AAC
TAFCNU
TAF AMD
KCNU 301136Z 3012/0112 21010KT P6SM OVC008
     FM301500 26012KT P6SM SCT010 BKN020
     FM301700 24014KT P6SM SCT020 BKN035
     FM010000 27008KT P6SM SCT250=



000
FTUS43 KICT 301136 AAB
TAFICT
TAF AMD
KICT 301136Z 3012/0112 28012KT P6SM OVC007
     FM301500 27014KT P6SM SCT010 BKN020
     FM301700 27014G21KT P6SM SCT020 BKN040
     FM010100 29009KT P6SM SCT150=



000
FTUS43 KICT 301136 AAB
TAFHUT
TAF AMD
KHUT 301136Z 3012/0112 29011KT P6SM OVC007
      TEMPO 3012/3015 OVC004
     FM301500 28014KT P6SM SCT010 BKN020
     FM301700 27015G23KT P6SM SCT020 BKN035
     FM010100 30010KT P6SM SCT020 BKN050
     FM011000 31013KT P6SM BKN020=



000
FTUS43 KICT 301136 AAC
TAFSLN
TAF AMD
KSLN 301136Z 3012/0112 31010KT P6SM OVC007
      TEMPO 3012/3016 5SM BR OVC004
     FM301600 27015G22KT P6SM SCT008 BKN012
     FM301900 28015G23KT P6SM SCT012 BKN030
     FM010100 30011KT P6SM SCT020 BKN035
     FM010600 30012KT P6SM BKN020=



000
FTUS43 KICT 301136 AAB
TAFRSL
TAF AMD
KRSL 301136Z 3012/0112 30011KT P6SM OVC006
      TEMPO 3012/3016 4SM BR OVC003
     FM301600 30014KT P6SM SCT007 BKN012
     FM301900 29014KT P6SM SCT020 BKN030
     FM010100 32011KT P6SM SCT020 BKN040
     FM010600 30012KT P6SM OVC012=



000
FTUS43 KICT 301019 AAA
TAFRSL
TAF AMD
KRSL 301019Z 3010/0106 31010KT P6SM OVC007
      TEMPO 3010/3014 3SM BR OVC003
     FM301800 29016KT P6SM BKN040
     FM010500 31014KT P6SM OVC025=



000
FTUS43 KICT 300814 AAB
TAFSLN
TAF AMD
KSLN 300814Z 3008/0106 33008KT P6SM OVC007
      TEMPO 3008/3012 4SM BR OVC004
     FM301600 27016KT P6SM BKN040=



000
FTUS43 KICT 300813 AAB
TAFCNU
TAF AMD
KCNU 300813Z 3008/0106 14008KT P6SM OVC006
     FM301600 24013KT P6SM SCT025
     FM302100 23014KT P6SM SCT110
     FM010300 26009KT P6SM SCT250=



000
FTUS43 KICT 300812 AAA
TAFHUT
TAF AMD
KHUT 300812Z 3008/0106 31008KT P6SM OVC006
     FM301500 27014KT P6SM SCT035
     FM302000 26015G23KT P6SM SCT050
     FM010200 27014KT P6SM SCT150=



000
FTUS43 KICT 300811 AAB
TAFICT
TAF AMD
KICT 300811Z 3008/0106 30008KT P6SM OVC008
      TEMPO 3008/3012 4SM BR OVC005
     FM301400 27014KT P6SM SCT020 BKN035
     FM301800 25013KT P6SM SCT120
     FM010400 28011KT P6SM SCT200=



000
FTUS43 KICT 300713 AAA
TAFCNU
TAF AMD
KCNU 300713Z 3007/0106 13010KT P6SM VCSH BKN008 OVC012
     FM301000 20007KT 5SM BR OVC007
     FM301600 24013KT P6SM SCT025
     FM302100 23014KT P6SM SCT110
     FM010300 26009KT P6SM SCT250=



000
FTUS43 KICT 300713 AAA
TAFCNU
TAF AMD
KCNU 300713Z 3007/0106 13010KT P6SM VCSH BKN008 OVC012
     FM301000 20007KT 5SM BR OVC007
     FM301600 24013KT P6SM SCT025
     FM302100 23014KT P6SM SCT110
     FM010300 26009KT P6SM SCT250=



000
FTUS43 KICT 300709 AAC
TAFICT
TAF AMD
KICT 300709Z 3007/0106 33007KT P6SM OVC009
      TEMPO 3007/3010 2SM -DZ BR OVC004
     FM301400 27014KT P6SM SCT035
     FM301800 25013KT P6SM SCT120
     FM010400 28011KT P6SM SCT200=



000
FTUS43 KICT 300709 AAC
TAFICT
TAF AMD
KICT 300709Z 3007/0106 33007KT P6SM OVC009
      TEMPO 3007/3010 2SM -DZ BR OVC004
     FM301400 27014KT P6SM SCT035
     FM301800 25013KT P6SM SCT120
     FM010400 28011KT P6SM SCT200=



000
FTUS43 KICT 300610 AAB
TAFICT
TAF AMD
KICT 300610Z 3006/0106 33007KT P6SM OVC009
      TEMPO 3006/3008 3SM -RA BR OVC005
     FM300800 30010KT 5SM BR OVC009
     FM301400 27014KT P6SM SCT035
     FM301800 25013KT P6SM SCT120
     FM010400 28011KT P6SM SCT200=



000
FTUS43 KICT 300609 AAA
TAFSLN
TAF AMD
KSLN 300609Z 3006/0106 36007KT P6SM OVC007
      TEMPO 3006/3008 3SM -RA BR OVC006
     FM300900 32013KT 5SM BR OVC005
     FM301600 27016KT P6SM BKN040=



000
FTUS43 KICT 300609 AAA
TAFSLN
TAF AMD
KSLN 300609Z 3006/0106 36007KT P6SM OVC007
      TEMPO 3006/3008 3SM -RA BR OVC006
     FM300900 32013KT 5SM BR OVC005
     FM301600 27016KT P6SM BKN040=



000
FTUS43 KICT 300520
TAFSLN
TAF
KSLN 300520Z 3006/0106 09012KT P6SM VCSH OVC007
     FM300900 32013KT 5SM BR OVC005
     FM301600 27016KT P6SM BKN040=



000
FTUS43 KICT 300520
TAFSLN
TAF
KSLN 300520Z 3006/0106 09012KT P6SM VCSH OVC007
     FM300900 32013KT 5SM BR OVC005
     FM301600 27016KT P6SM BKN040=



000
FTUS43 KICT 300520
TAFHUT
TAF
KHUT 300520Z 3006/0106 10010KT P6SM VCSH OVC005
     FM300800 30010KT 5SM BR OVC008
     FM301600 27014KT P6SM SCT035
     FM302000 26015G23KT P6SM SCT050
     FM010200 27014KT P6SM SCT150=



000
FTUS43 KICT 300520
TAFICT
TAF
KICT 300520Z 3006/0106 12014KT P6SM VCSH OVC009
     FM300800 30010KT 5SM BR OVC009
     FM301400 27014KT P6SM SCT035
     FM301800 25013KT P6SM SCT120
     FM010400 28011KT P6SM SCT200=



000
FTUS43 KICT 300520
TAFRSL
TAF
KRSL 300520Z 3006/0106 33012KT 5SM BR VCSH SCT004 OVC015
      TEMPO 3006/3009 BKN004
     FM300900 32013KT 4SM BR OVC009
     FM301800 29016KT P6SM BKN040
     FM010500 31014KT P6SM OVC025=



000
FTUS43 KICT 300520
TAFCNU
TAF
KCNU 300520Z 3006/0106 09010KT P6SM VCSH SCT009 OVC015
     FM301000 20007KT 5SM BR OVC007
     FM301600 24013KT P6SM SCT025
     FM302100 23014KT P6SM SCT110
     FM010300 26009KT P6SM SCT250=



000
FTUS43 KICT 300332 AAA
TAFCNU
TAF AMD
KCNU 300332Z 3004/3024 11011KT P6SM VCSH OVC009
     FM301000 20007KT 5SM BR OVC007
     FM301600 24013KT P6SM SCT025
     FM302100 23014KT P6SM SCT110=



000
FTUS43 KICT 300332 AAA
TAFCNU
TAF AMD
KCNU 300332Z 3004/3024 11011KT P6SM VCSH OVC009
     FM301000 20007KT 5SM BR OVC007
     FM301600 24013KT P6SM SCT025
     FM302100 23014KT P6SM SCT110=



000
FTUS43 KICT 300331 AAB
TAFRSL
TAF AMD
KRSL 300331Z 3004/3024 03017G24KT 4SM BR VCSH SCT004 OVC015
      TEMPO 3004/3007 BKN004
     FM300700 32013KT 3SM BR OVC009
     FM301500 29016KT P6SM SCT040=



000
FTUS43 KICT 300107 AAA
TAFRSL
TAF AMD
KRSL 300107Z 3001/3024 06018G28KT 4SM -SHRA VCTS SCT003 OVC007CB
      TEMPO 3001/3003 1SM TSRA BR OVC003CB
     FM300300 03017G24KT 4SM BR VCSH OVC004
     FM300700 32013KT 3SM BR OVC006
     FM301500 29016KT P6SM SCT040=



000
FTUS43 KICT 292320
TAFRSL
TAF
KRSL 292320Z 3000/3024 06018G28KT P6SM -SHRA VCTS SCT003 OVC007CB
     FM300200 03017G24KT 4SM BR VCSH OVC004
     FM300700 32013KT 3SM BR OVC006
     FM301500 29016KT P6SM SCT040=



000
FTUS43 KICT 292320
TAFHUT
TAF
KHUT 292320Z 3000/3024 06016KT P6SM VCSH SCT008 OVC012
     FM300200 10014KT 4SM BR VCTS OVC008CB
     FM300800 30010KT 4SM BR OVC008
     FM301600 27014KT P6SM SCT035
     FM302000 26015G23KT P6SM SCT060=



000
FTUS43 KICT 292320
TAFICT
TAF
KICT 292320Z 3000/3024 06019G24KT P6SM VCSH SCT008 OVC012
     FM300200 12014KT 4SM BR VCTS OVC008CB
     FM300800 30010KT 4SM BR OVC008
     FM301400 27014KT P6SM SCT035
     FM301800 25013KT P6SM SCT200=



000
FTUS43 KICT 292320
TAFCNU
TAF
KCNU 292320Z 3000/3024 04014KT P6SM -SHRA VCTS SCT012 OVC025CB
      TEMPO 3000/3003 2SM +TSRA BKN008 OVC015CB
     FM300300 11011KT 4SM BR VCTS OVC009CB
     FM301000 20007KT 3SM BR OVC007
     FM301600 24013KT P6SM SCT025
     FM302100 23014KT P6SM SCT110=



000
FTUS43 KICT 292320
TAFSLN
TAF
KSLN 292320Z 3000/3024 05018G26KT P6SM -SHRA VCTS BKN007 OVC012CB
     FM300200 03018G26KT P6SM VCSH OVC007
     FM300900 32013KT 4SM BR OVC008
     FM301600 29016KT P6SM SCT040
     FM302100 26014KT P6SM BKN040=



000
FTUS43 KICT 292147 AAB
TAFCNU
TAF AMD
KCNU 292147Z 2922/3018 05015G23KT P6SM VCTS OVC025CB
     FM292300 09014KT P6SM VCTS OVC020CB
      TEMPO 2923/3003 2SM +TSRA BKN008 OVC015CB
     FM300300 11011KT 4SM TSRA OVC009CB
     FM301000 20007KT 3SM BR OVC007
     FM301600 24013KT P6SM SCT025=



000
FTUS43 KICT 292109 AAB
TAFICT
TAF AMD
KICT 292109Z 2921/3018 06019G24KT P6SM VCTS SCT008 OVC020CB
     FM300200 12014KT 4SM BR VCTS OVC008CB
     FM300800 30010KT 3SM BR OVC008
     FM301600 27014KT P6SM SCT035=



000
FTUS43 KICT 292106 AAA
TAFSLN
TAF AMD
KSLN 292106Z 2921/3018 05018G26KT P6SM VCSH BKN007 OVC015
     FM300200 03018G26KT P6SM VCSH OVC007
     FM300900 32013KT 3SM BR OVC008
     FM301600 29016KT P6SM SCT040=



000
FTUS43 KICT 292104 AAA
TAFRSL
TAF AMD
KRSL 292104Z 2921/3018 06018G28KT P6SM VCSH OVC007
     FM300200 03017G24KT 4SM BR VCSH OVC004
     FM300700 32013KT 3SM BR OVC006
     FM301500 29016KT P6SM SCT040=



000
FTUS43 KICT 292104 AAA
TAFRSL
TAF AMD
KRSL 292104Z 2921/3018 06018G28KT P6SM VCSH OVC007
     FM300200 03017G24KT 4SM BR VCSH OVC004
     FM300700 32013KT 3SM BR OVC006
     FM301500 29016KT P6SM SCT040=



000
FTUS43 KICT 292058 AAA
TAFCNU
TAF AMD
KCNU 292058Z 2921/3018 05015G23KT P6SM VCTS OVC025CB
      TEMPO 2921/2922 25035G40KT 1SM +TSRA OVC015CB
     FM292300 09014KT P6SM VCTS OVC020CB
      TEMPO 2923/3003 2SM +TSRA BKN008 OVC015CB
     FM300300 11011KT 4SM TSRA OVC009CB
     FM301000 20007KT 3SM BR OVC007
     FM301600 24013KT P6SM SCT025=



000
FTUS43 KICT 291929 AAB
TAFICT
TAF AMD
KICT 291929Z 2919/3018 07016G24KT 6SM -TSRA OVC008CB
      TEMPO 2919/2921 25030G45KT 1 1/2SM +TSRA BKN008 OVC012CB
     FM292200 06016G22KT 6SM -SHRA VCTS OVC010CB
      TEMPO 2922/3002 2SM +TSRA BKN008 OVC015CB
     FM300200 12014KT 4SM BR VCTS OVC008CB
     FM300800 30010KT 3SM BR OVC008
     FM301600 27014KT P6SM SCT035=



000
FTUS43 KICT 291859 AAA
TAFICT
TAF AMD
KICT 291859Z 2919/3018 07016G24KT 6SM -SHRA VCTS OVC008CB
      TEMPO 2919/2922 1 1/2SM +TSRA BKN008 OVC012CB
     FM292200 06016G22KT 6SM -SHRA VCTS OVC010CB
      TEMPO 2922/3002 2SM +TSRA BKN008 OVC015CB
     FM300200 12014KT 4SM BR VCTS OVC008CB
     FM300800 30010KT 3SM BR OVC008
     FM301600 27014KT P6SM SCT035=



000
FTUS43 KICT 291720
TAFCNU
TAF
KCNU 291720Z 2918/3018 07015G23KT P6SM VCSH OVC035
     FM292300 09014KT P6SM VCTS OVC020CB
      TEMPO 2923/3003 2SM +TSRA BKN008 OVC015CB
     FM300300 11011KT 4SM TSRA OVC009CB
     FM301000 20007KT 3SM BR OVC007
     FM301600 24013KT P6SM SCT025=



000
FTUS43 KICT 291720
TAFRSL
TAF
KRSL 291720Z 2918/3018 04017G23KT 5SM -SHRA VCTS OVC009CB
      TEMPO 2918/2922 3SM TSRA SCT007 OVC012CB
     FM292200 06014G21KT 5SM -SHRA VCTS OVC009CB
      TEMPO 2922/3002 3SM TSRA SCT007 OVC012CB
     FM300200 03014G20KT 4SM BR VCTS OVC004CB
     FM300700 32013KT 3SM BR OVC006
     FM301500 29016KT P6SM SCT040=



000
FTUS43 KICT 291720
TAFSLN
TAF
KSLN 291720Z 2918/3018 04014G20KT 5SM -SHRA VCTS SCT009 OVC015CB
      TEMPO 2918/2922 3SM TSRA SCT007 OVC012CB
     FM292200 06014G21KT 5SM -SHRA VCTS OVC009CB
      TEMPO 2922/3002 3SM TSRA SCT007 OVC012CB
     FM300200 03014G20KT 4SM -TSRA BR OVC005CB
     FM300900 32013KT 3SM BR OVC008
     FM301600 29016KT P6SM SCT040=



000
FTUS43 KICT 291720
TAFICT
TAF
KICT 291720Z 2918/3018 07016G24KT 6SM -SHRA VCTS OVC012CB
      TEMPO 2918/2922 3SM TSRA BKN008 OVC012CB
     FM292200 06016G22KT 6SM -SHRA VCTS OVC010CB
      TEMPO 2922/3002 2SM +TSRA BKN008 OVC015CB
     FM300200 12014KT 4SM BR VCTS OVC008CB
     FM300800 30010KT 3SM BR OVC008
     FM301600 27014KT P6SM SCT035=



000
FTUS43 KICT 291720
TAFHUT
TAF
KHUT 291720Z 2918/3018 07016G24KT 6SM -SHRA VCTS OVC008CB
      TEMPO 2918/2922 3SM TSRA SCT008 OVC012CB
     FM292200 06016G22KT 6SM -SHRA VCTS OVC008CB
      TEMPO 2922/3002 2SM +TSRA SCT008 OVC015CB
     FM300200 10014KT 3SM BR VCTS OVC008CB
     FM300800 30010KT 3SM BR OVC008
     FM301600 27014KT P6SM SCT035=



000
FTUS43 KICT 291720
TAFICT
TAF
KICT 291720Z 2918/3018 07016G24KT 6SM -SHRA VCTS OVC012CB
      TEMPO 2918/2922 3SM TSRA BKN008 OVC012CB
     FM292200 06016G22KT 6SM -SHRA VCTS OVC010CB
      TEMPO 2922/3002 2SM +TSRA BKN008 OVC015CB
     FM300200 12014KT 4SM BR VCTS OVC008CB
     FM300800 30010KT 3SM BR OVC008
     FM301600 27014KT P6SM SCT035=



000
FTUS43 KICT 291720
TAFHUT
TAF
KHUT 291720Z 2918/3018 07016G24KT 6SM -SHRA VCTS OVC008CB
      TEMPO 2918/2922 3SM TSRA SCT008 OVC012CB
     FM292200 06016G22KT 6SM -SHRA VCTS OVC008CB
      TEMPO 2922/3002 2SM +TSRA SCT008 OVC015CB
     FM300200 10014KT 3SM BR VCTS OVC008CB
     FM300800 30010KT 3SM BR OVC008
     FM301600 27014KT P6SM SCT035=



000
FTUS43 KICT 291720
TAFSLN
TAF
KSLN 291720Z 2918/3018 04014G20KT 5SM -SHRA VCTS SCT009 OVC015CB
      TEMPO 2918/2922 3SM TSRA SCT007 OVC012CB
     FM292200 06014G21KT 5SM -SHRA VCTS OVC009CB
      TEMPO 2922/3002 3SM TSRA SCT007 OVC012CB
     FM300200 03014G20KT 4SM -TSRA BR OVC005CB
     FM300900 32013KT 3SM BR OVC008
     FM301600 29016KT P6SM SCT040=



000
FTUS43 KICT 291720
TAFCNU
TAF
KCNU 291720Z 2918/3018 07015G23KT P6SM VCSH OVC035
     FM292300 09014KT P6SM VCTS OVC020CB
      TEMPO 2923/3003 2SM +TSRA BKN008 OVC015CB
     FM300300 11011KT 4SM TSRA OVC009CB
     FM301000 20007KT 3SM BR OVC007
     FM301600 24013KT P6SM SCT025=



000
FTUS43 KICT 291720
TAFRSL
TAF
KRSL 291720Z 2918/3018 04017G23KT 5SM -SHRA VCTS OVC009CB
      TEMPO 2918/2922 3SM TSRA SCT007 OVC012CB
     FM292200 06014G21KT 5SM -SHRA VCTS OVC009CB
      TEMPO 2922/3002 3SM TSRA SCT007 OVC012CB
     FM300200 03014G20KT 4SM BR VCTS OVC004CB
     FM300700 32013KT 3SM BR OVC006
     FM301500 29016KT P6SM SCT040=



000
FTUS43 KICT 291400 AAC
TAFSLN
TAF AMD
KSLN 291400Z 2914/3012 04014G20KT 5SM -SHRA SCT015 OVC040
      TEMPO 2914/2918 3SM SHRA SCT009 OVC014
     FM292100 09017G24KT 6SM -TSRA OVC012CB
     FM300400 11017G26KT 5SM -TSRA BR OVC008CB
     FM300900 18016G24KT P6SM VCTS SCT009 BKN012CB=



000
FTUS43 KICT 291358 AAC
TAFRSL
TAF AMD
KRSL 291358Z 2914/3012 04013G22KT 4SM -SHRA SCT008 OVC015
      TEMPO 2914/2918 3SM SHRA BKN008 OVC012
     FM291800 04014G21KT 3SM -SHRA VCTS OVC012CB
     FM292100 06014G21KT 5SM -TSRA OVC010CB
     FM300200 03014G20KT 5SM -TSRA BR OVC006CB
     FM300900 31015KT 6SM -TSRA BKN008 OVC025CB=



000
FTUS43 KICT 291358 AAC
TAFRSL
TAF AMD
KRSL 291358Z 2914/3012 04013G22KT 4SM -SHRA SCT008 OVC015
      TEMPO 2914/2918 3SM SHRA BKN008 OVC012
     FM291800 04014G21KT 3SM -SHRA VCTS OVC012CB
     FM292100 06014G21KT 5SM -TSRA OVC010CB
     FM300200 03014G20KT 5SM -TSRA BR OVC006CB
     FM300900 31015KT 6SM -TSRA BKN008 OVC025CB=



000
FTUS43 KICT 291350 AAC
TAFHUT
TAF AMD
KHUT 291350Z 2914/3012 05011G20KT 5SM -SHRA VCTS SCT008 OVC015CB
      TEMPO 2914/2918 3SM -TSRA BKN008 OVC015CB
     FM291800 07017G25KT P6SM VCTS OVC025CB
     FM292100 09017G24KT 6SM -TSRA OVC012CB
     FM300400 14016KT 5SM -TSRA BR OVC008CB
     FM300900 24016G24KT P6SM SCT009 BKN016=



000
FTUS43 KICT 291350 AAC
TAFHUT
TAF AMD
KHUT 291350Z 2914/3012 05011G20KT 5SM -SHRA VCTS SCT008 OVC015CB
      TEMPO 2914/2918 3SM -TSRA BKN008 OVC015CB
     FM291800 07017G25KT P6SM VCTS OVC025CB
     FM292100 09017G24KT 6SM -TSRA OVC012CB
     FM300400 14016KT 5SM -TSRA BR OVC008CB
     FM300900 24016G24KT P6SM SCT009 BKN016=



000
FTUS43 KICT 291243 AAC
TAFICT
TAF AMD
KICT 291243Z 2913/3012 04017G25KT P6SM OVC035
      TEMPO 2913/2916 6SM -TSRA BKN014 OVC030CB
     FM291600 07017G25KT P6SM VCTS OVC025CB
     FM292100 09017G24KT 6SM -TSRA OVC012CB
     FM300400 14016KT 5SM -TSRA BR OVC008CB
     FM300900 23016G24KT P6SM SCT020 BKN025=



000
FTUS43 KICT 291243 AAC
TAFICT
TAF AMD
KICT 291243Z 2913/3012 04017G25KT P6SM OVC035
      TEMPO 2913/2916 6SM -TSRA BKN014 OVC030CB
     FM291600 07017G25KT P6SM VCTS OVC025CB
     FM292100 09017G24KT 6SM -TSRA OVC012CB
     FM300400 14016KT 5SM -TSRA BR OVC008CB
     FM300900 23016G24KT P6SM SCT020 BKN025=



000
FTUS43 KICT 291141 AAA
TAFCNU
TAF AMD
KCNU 291141Z 2912/3012 05014KT P6SM SCT060 BKN120
     FM291600 07015G23KT P6SM VCTS SCT030 BKN050CB
     FM292200 09014KT P6SM -TSRA OVC025CB
     FM300400 11011KT 4SM TSRA OVC010CB
     FM301000 22015KT P6SM SCT012 BKN020=



000
FTUS43 KICT 291141 AAB
TAFICT
TAF AMD
KICT 291141Z 2912/3012 06017G25KT P6SM OVC060
      TEMPO 2912/2916 6SM -TSRA BKN025 OVC040CB
     FM291600 07017G25KT P6SM VCTS SCT020 OVC030CB
     FM292100 09017G24KT 6SM -TSRA OVC012CB
     FM300400 14016KT 5SM -TSRA BR OVC008CB
     FM300900 23016G24KT P6SM SCT020 BKN025=



000
FTUS43 KICT 291141 AAB
TAFRSL
TAF AMD
KRSL 291141Z 2912/3012 04016KT P6SM SCT008 BKN025
      TEMPO 2912/2916 5SM -TSRA BKN016 OVC035CB
     FM291600 04014G21KT P6SM VCTS OVC020CB
     FM292100 06014G21KT 6SM -TSRA OVC010CB
     FM300200 03014G20KT 5SM -TSRA BR OVC006CB
     FM300900 31015KT 6SM -TSRA BKN008 OVC025CB=



000
FTUS43 KICT 291141 AAB
TAFHUT
TAF AMD
KHUT 291141Z 2912/3012 05016G24KT P6SM VCSH OVC025
      TEMPO 2912/2916 6SM -TSRA BKN015 OVC035CB
     FM291600 07017G25KT P6SM VCTS OVC025CB
     FM292100 09017G24KT 6SM -TSRA OVC012CB
     FM300400 14016KT 5SM -TSRA BR OVC008CB
     FM300900 24016G24KT P6SM SCT009 BKN016=



000
FTUS43 KICT 291141 AAB
TAFSLN
TAF AMD
KSLN 291141Z 2912/3012 04014G20KT P6SM SCT012 BKN035
      TEMPO 2912/2916 5SM TSRA BKN016 OVC035CB
     FM291600 07017G25KT P6SM VCTS OVC025CB
     FM292100 09017G24KT 6SM -TSRA OVC012CB
     FM300400 11017G26KT 5SM -TSRA BR OVC008CB
     FM300900 18016G24KT P6SM VCTS SCT009 BKN012CB=



000
FTUS43 KICT 291141 AAB
TAFRSL
TAF AMD
KRSL 291141Z 2912/3012 04016KT P6SM SCT008 BKN025
      TEMPO 2912/2916 5SM -TSRA BKN016 OVC035CB
     FM291600 04014G21KT P6SM VCTS OVC020CB
     FM292100 06014G21KT 6SM -TSRA OVC010CB
     FM300200 03014G20KT 5SM -TSRA BR OVC006CB
     FM300900 31015KT 6SM -TSRA BKN008 OVC025CB=



000
FTUS43 KICT 291141 AAB
TAFICT
TAF AMD
KICT 291141Z 2912/3012 06017G25KT P6SM OVC060
      TEMPO 2912/2916 6SM -TSRA BKN025 OVC040CB
     FM291600 07017G25KT P6SM VCTS SCT020 OVC030CB
     FM292100 09017G24KT 6SM -TSRA OVC012CB
     FM300400 14016KT 5SM -TSRA BR OVC008CB
     FM300900 23016G24KT P6SM SCT020 BKN025=



000
FTUS43 KICT 291141 AAA
TAFCNU
TAF AMD
KCNU 291141Z 2912/3012 05014KT P6SM SCT060 BKN120
     FM291600 07015G23KT P6SM VCTS SCT030 BKN050CB
     FM292200 09014KT P6SM -TSRA OVC025CB
     FM300400 11011KT 4SM TSRA OVC010CB
     FM301000 22015KT P6SM SCT012 BKN020=



000
FTUS43 KICT 291141 AAB
TAFHUT
TAF AMD
KHUT 291141Z 2912/3012 05016G24KT P6SM VCSH OVC025
      TEMPO 2912/2916 6SM -TSRA BKN015 OVC035CB
     FM291600 07017G25KT P6SM VCTS OVC025CB
     FM292100 09017G24KT 6SM -TSRA OVC012CB
     FM300400 14016KT 5SM -TSRA BR OVC008CB
     FM300900 24016G24KT P6SM SCT009 BKN016=



000
FTUS43 KICT 291141 AAB
TAFSLN
TAF AMD
KSLN 291141Z 2912/3012 04014G20KT P6SM SCT012 BKN035
      TEMPO 2912/2916 5SM TSRA BKN016 OVC035CB
     FM291600 07017G25KT P6SM VCTS OVC025CB
     FM292100 09017G24KT 6SM -TSRA OVC012CB
     FM300400 11017G26KT 5SM -TSRA BR OVC008CB
     FM300900 18016G24KT P6SM VCTS SCT009 BKN012CB=



000
FTUS43 KICT 291016 AAA
TAFHUT
TAF AMD
KHUT 291016Z 2910/3006 03013KT P6SM VCTS SCT035CB OVC070
      TEMPO 2911/2915 4SM -TSRA BKN020 OVC035CB
     FM291500 07017G22KT P6SM VCSH SCT020 OVC040
     FM292000 10017G22KT P6SM VCSH OVC035=



000
FTUS43 KICT 291012 AAA
TAFRSL
TAF AMD
KRSL 291012Z 2910/3006 04009KT P6SM SCT020 BKN040
      TEMPO 2910/2914 5SM -RA BKN020=



000
FTUS43 KICT 290915 AAA
TAFSLN
TAF AMD
KSLN 290915Z 2909/3006 04011KT P6SM SCT020 OVC040
      TEMPO 2910/2914 5SM -RA BR BKN020 OVC035
     FM291700 07017KT P6SM OVC025=



000
FTUS43 KICT 290520
TAFCNU
TAF
KCNU 290520Z 2906/3006 03007KT P6SM OVC150
     FM291100 06013KT P6SM SCT015 OVC080
     FM291400 08017KT P6SM SCT015 OVC050
     FM292000 12022G26KT P6SM OVC040=



000
FTUS43 KICT 290520
TAFRSL
TAF
KRSL 290520Z 2906/3006 06009KT P6SM SCT030 OVC150
     FM290800 05013KT P6SM VCSH SCT015 OVC025
     FM291000 04017KT 4SM RA OVC013
     FM291300 05013KT 2SM RA OVC007=



000
FTUS43 KICT 290520
TAFSLN
TAF
KSLN 290520Z 2906/3006 04007KT P6SM VCSH SCT035 OVC070
      TEMPO 2906/2909 5SM -RA BKN017
     FM290900 05013KT P6SM VCSH OVC015
     FM291700 07017KT P6SM OVC025=



000
FTUS43 KICT 290520
TAFHUT
TAF
KHUT 290520Z 2906/3006 03013KT 6SM -RA SCT035 OVC070
     FM291100 06017KT P6SM VCSH BKN015 OVC060
     FM291500 07017G22KT P6SM VCSH SCT020 OVC040
     FM292000 10017G22KT P6SM VCSH OVC035=



000
FTUS43 KICT 290520
TAFICT
TAF
KICT 290520Z 2906/3006 03013KT 6SM -RA SCT035 OVC070
     FM291100 06017KT 6SM -RA BKN015 OVC060
     FM291500 07017G22KT P6SM VCSH SCT020 OVC040
     FM292000 10017G22KT P6SM VCSH OVC035=



000
FTUS43 KICT 290425 AAC
TAFICT
TAF AMD
KICT 290425Z 2904/2924 04013KT P6SM VCSH SCT080 OVC150
     FM290600 03013KT 6SM -RA SCT035 OVC070
     FM291100 06017KT P6SM VCSH BKN015 OVC060
     FM291500 07017G22KT P6SM VCSH SCT020 OVC040
     FM292000 10017G22KT P6SM VCSH OVC035=



000
FTUS43 KICT 290322 AAB
TAFHUT
TAF AMD
KHUT 290322Z 2903/2924 03007KT P6SM VCTS SCT070CB OVC150
      TEMPO 2903/2906 6SM -TSRA BKN060CB
     FM290600 04009KT P6SM VCTS SCT050CB OVC150
      TEMPO 2906/2909 6SM -TSRA BKN035CB
     FM290900 05017KT P6SM VCSH OVC015=



000
FTUS43 KICT 290007 AAB
TAFICT
TAF AMD
KICT 290007Z 2900/2924 06009KT P6SM SCT150 BKN300
     FM290500 05013KT P6SM SCT050 OVC170
     FM291100 06013KT P6SM SCT015 OVC050
     FM291400 05017KT P6SM VCSH OVC015=



000
FTUS43 KICT 290005 AAA
TAFHUT
TAF AMD
KHUT 290005Z 2900/2924 05009KT P6SM BKN070
     FM290500 04017KT P6SM SCT070 OVC150
     FM290700 04017KT P6SM SCT015 OVC050
     FM290900 05017KT P6SM VCSH OVC015=



000
FTUS43 KICT 282340
TAFICT
TAF
KICT 282340Z 2900/2924 06009KT P6SM SCT150 BKN300
     FM290500 05013KT P6SM SCT050 OVC170=



000
FTUS43 KICT 282340
TAFRSL
TAF
KRSL 282340Z 2900/2924 04009KT P6SM BKN060 OVC150
     FM290600 04017KT P6SM VCSH SCT015 OVC060
     FM290900 08013KT 4SM TSRA OVC015CB=



000
FTUS43 KICT 282340
TAFSLN
TAF
KSLN 282340Z 2900/2924 03009KT P6SM BKN080 OVC300
     FM290600 04013KT P6SM SCT020 OVC100
     FM291000 04013KT P6SM VCSH OVC015=



000
FTUS43 KICT 282340
TAFCNU
TAF
KCNU 282340Z 2900/2924 03004KT P6SM BKN180
     FM290400 03013KT P6SM OVC180=



000
FTUS43 KICT 282340
TAFHUT
TAF
KHUT 282340Z 2900/2924 07013KT P6SM BKN070
     FM290400 04017KT P6SM SCT070 OVC150=



000
FTUS43 KICT 282340
TAFRSL
TAF
KRSL 282340Z 2900/2924 04009KT P6SM BKN060 OVC150
     FM290600 04017KT P6SM VCSH SCT015 OVC060
     FM290900 08013KT 4SM TSRA OVC015CB=



000
FTUS43 KICT 282340
TAFICT
TAF
KICT 282340Z 2900/2924 06009KT P6SM SCT150 BKN300
     FM290500 05013KT P6SM SCT050 OVC170=



000
FTUS43 KICT 282340
TAFSLN
TAF
KSLN 282340Z 2900/2924 03009KT P6SM BKN080 OVC300
     FM290600 04013KT P6SM SCT020 OVC100
     FM291000 04013KT P6SM VCSH OVC015=



000
FTUS43 KICT 282340
TAFCNU
TAF
KCNU 282340Z 2900/2924 03004KT P6SM BKN180
     FM290400 03013KT P6SM OVC180=



000
FTUS43 KICT 282340
TAFHUT
TAF
KHUT 282340Z 2900/2924 07013KT P6SM BKN070
     FM290400 04017KT P6SM SCT070 OVC150=



000
FTUS43 KICT 281739
TAFCNU
TAF
KCNU 281739Z 2818/2918 32010KT P6SM BKN250
     FM290000 06007KT P6SM SCT100 SCT250
     FM291200 07012KT P6SM VCSH SCT050 BKN090=



000
FTUS43 KICT 281739
TAFHUT
TAF
KHUT 281739Z 2818/2918 35011KT P6SM SCT100 BKN250
     FM282100 05006KT P6SM SCT250
     FM290500 07012KT P6SM VCSH SCT050 BKN090
     FM291400 08014KT P6SM VCSH SCT015 OVC030=



000
FTUS43 KICT 281739
TAFRSL
TAF
KRSL 281739Z 2818/2918 35010KT P6SM VCSH BKN100
      TEMPO 2818/2819 -SHRA
     FM282000 04008KT P6SM SCT100 BKN250
     FM290400 05011KT P6SM VCSH SCT050 BKN090
     FM291000 06014KT P6SM VCSH SCT015 OVC030=



000
FTUS43 KICT 281739
TAFICT
TAF
KICT 281739Z 2818/2918 36010KT P6SM SCT100 BKN250
     FM282100 06006KT P6SM SCT250
     FM290500 07012KT P6SM VCSH SCT050 BKN090
     FM291400 08014KT P6SM VCSH SCT015 OVC030=



000
FTUS43 KICT 281739
TAFRSL
TAF
KRSL 281739Z 2818/2918 35010KT P6SM VCSH BKN100
      TEMPO 2818/2819 -SHRA
     FM282000 04008KT P6SM SCT100 BKN250
     FM290400 05011KT P6SM VCSH SCT050 BKN090
     FM291000 06014KT P6SM VCSH SCT015 OVC030=



000
FTUS43 KICT 281739
TAFSLN
TAF
KSLN 281739Z 2818/2918 33010KT P6SM VCSH BKN100
      TEMPO 2818/2819 -SHRA
     FM282000 36005KT P6SM SCT100 BKN250
     FM290600 05011KT P6SM VCSH SCT050 BKN090
     FM291400 07014KT P6SM VCSH SCT015 OVC030=



000
FTUS43 KICT 281739
TAFSLN
TAF
KSLN 281739Z 2818/2918 33010KT P6SM VCSH BKN100
      TEMPO 2818/2819 -SHRA
     FM282000 36005KT P6SM SCT100 BKN250
     FM290600 05011KT P6SM VCSH SCT050 BKN090
     FM291400 07014KT P6SM VCSH SCT015 OVC030=



000
FTUS43 KICT 281739
TAFHUT
TAF
KHUT 281739Z 2818/2918 35011KT P6SM SCT100 BKN250
     FM282100 05006KT P6SM SCT250
     FM290500 07012KT P6SM VCSH SCT050 BKN090
     FM291400 08014KT P6SM VCSH SCT015 OVC030=



000
FTUS43 KICT 281739
TAFICT
TAF
KICT 281739Z 2818/2918 36010KT P6SM SCT100 BKN250
     FM282100 06006KT P6SM SCT250
     FM290500 07012KT P6SM VCSH SCT050 BKN090
     FM291400 08014KT P6SM VCSH SCT015 OVC030=



000
FTUS43 KICT 281739
TAFCNU
TAF
KCNU 281739Z 2818/2918 32010KT P6SM BKN250
     FM290000 06007KT P6SM SCT100 SCT250
     FM291200 07012KT P6SM VCSH SCT050 BKN090=



000
FTUS43 KICT 281132
TAFSLN
TAF
KSLN 281132Z 2812/2912 31009KT P6SM BKN120
     FM281800 01005KT P6SM BKN200
     FM282100 04007KT P6SM BKN200
     FM290500 05011KT P6SM VCSH OVC080=



000
FTUS43 KICT 281132
TAFRSL
TAF
KRSL 281132Z 2812/2912 32010KT P6SM BKN110
     FM281800 02006KT P6SM SCT200
     FM282100 04008KT P6SM BKN200
     FM290500 05011KT P6SM VCSH SCT020 OVC070
      TEMPO 2910/2912 5SM SHRA BKN020=



000
FTUS43 KICT 281132
TAFICT
TAF
KICT 281132Z 2812/2912 33008KT P6SM BKN130
     FM281800 02005KT P6SM SCT200
     FM282100 08006KT P6SM BKN200
     FM290500 07012KT P6SM OVC090=



000
FTUS43 KICT 281132
TAFCNU
TAF
KCNU 281132Z 2812/2912 31007KT P6SM SCT130
     FM282300 VRB03KT P6SM BKN200
     FM290800 05009KT P6SM OVC090=



000
FTUS43 KICT 281132
TAFHUT
TAF
KHUT 281132Z 2812/2912 33009KT P6SM BKN120
     FM281800 02005KT P6SM SCT200
     FM282100 08006KT P6SM BKN200
     FM290500 07011KT P6SM OVC090=



000
FTUS43 KICT 280520
TAFHUT
TAF
KHUT 280520Z 2806/2906 29009KT P6SM SKC
     FM282200 04006KT P6SM SCT250
     FM290000 08007KT P6SM SCT250
     FM290300 05006KT P6SM BKN100=



000
FTUS43 KICT 280520
TAFCNU
TAF
KCNU 280520Z 2806/2906 30006KT P6SM SKC
     FM282300 02005KT P6SM SCT250=



000
FTUS43 KICT 280520
TAFICT
TAF
KICT 280520Z 2806/2906 31009KT P6SM SKC
     FM282100 06005KT P6SM SCT250
     FM290300 07006KT P6SM BKN100=



000
FTUS43 KICT 280520
TAFSLN
TAF
KSLN 280520Z 2806/2906 28011KT P6SM SKC
     FM281700 32006KT P6SM BKN200
     FM282200 04007KT P6SM BKN250=



000
FTUS43 KICT 280520
TAFRSL
TAF
KRSL 280520Z 2806/2906 31008KT P6SM SKC
     FM281900 36006KT P6SM SCT250
     FM282200 06007KT P6SM SCT100
     FM290200 06008KT P6SM BKN100=



    US Dept of Commerce
    National Oceanic and Atmospheric Administration
    National Weather Service
    1325 East West Highway
    Silver Spring, MD 20910
    Page Author: NWS Internet Services Team
Disclaimer
Information Quality
Credits
Glossary
Privacy Policy
Freedom of Information Act (FOIA)
About Us
Career Opportunities